Time;durP1;ratioP1;P1;durP2;ratioP2;P2;SDS_P1;SDS_P2;PMS_P1;PMS_P2;Temp;Humidity;BMP_temperature;BMP_pressure;BME280_temperature;BME280_humidity;BME280_pressure;Samples;Min_cycle;Max_cycle;Signal;HPM_P1;HPM_P2
2022/10/15 00:01:07;;;;;;;18.23;15.40;;;16.20;99.90;;;;;;4982980;28;20267;-75
2022/10/15 00:03:37;;;;;;;16.77;14.95;;;16.20;99.90;;;;;;4997071;28;20200;-74
2022/10/15 00:06:08;;;;;;;16.98;14.65;;;16.20;99.90;;;;;;4988091;28;20773;-74
2022/10/15 00:08:35;;;;;;;17.23;14.88;;;16.20;99.90;;;;;;5001905;28;20197;-74
2022/10/15 00:11:05;;;;;;;18.33;15.55;;;16.20;99.90;;;;;;5004401;28;20271;-74
2022/10/15 00:13:33;;;;;;;19.73;15.80;;;16.20;99.90;;;;;;4989379;28;20716;-74
2022/10/15 00:16:01;;;;;;;18.50;15.80;;;16.20;99.90;;;;;;5005436;28;20315;-74
2022/10/15 00:18:28;;;;;;;17.30;15.10;;;16.20;99.90;;;;;;4992414;28;20907;-74
2022/10/15 00:20:56;;;;;;;23.45;18.08;;;16.20;99.90;;;;;;4985759;28;20223;-74
2022/10/15 00:23:25;;;;;;;42.47;30.88;;;16.20;99.90;;;;;;4982215;28;20606;-74
2022/10/15 00:26:02;;;;;;;30.98;25.15;;;16.10;99.90;;;;;;4986291;28;20221;-74
2022/10/15 00:28:30;;;;;;;27.70;24.27;;;16.10;99.90;;;;;;4991623;28;20191;-75
2022/10/15 00:31:01;;;;;;;29.20;23.55;;;16.00;99.90;;;;;;4980829;28;20231;-75
2022/10/15 00:33:28;;;;;;;22.77;20.38;;;15.90;99.90;;;;;;5004192;28;20765;-75
2022/10/15 00:36:00;;;;;;;21.95;18.85;;;15.90;99.90;;;;;;5009104;28;20216;-75
2022/10/15 00:38:30;;;;;;;20.80;16.70;;;15.80;99.90;;;;;;5013592;28;20203;-75
2022/10/15 00:40:57;;;;;;;17.95;15.50;;;15.80;99.90;;;;;;5006730;28;20311;-75
2022/10/15 00:43:40;;;;;;;30.63;23.13;;;15.90;99.90;;;;;;4994895;28;20208;-76
2022/10/15 00:46:18;;;;;;;22.90;19.30;;;15.90;99.90;;;;;;5007589;28;20220;-76
2022/10/15 00:48:48;;;;;;;19.90;17.20;;;15.90;99.90;;;;;;5010121;28;20193;-76
2022/10/15 00:51:17;;;;;;;19.80;17.10;;;16.00;99.90;;;;;;4992517;28;20227;-76
2022/10/15 00:53:48;;;;;;;21.05;18.02;;;15.90;99.90;;;;;;5006987;28;20193;-76
2022/10/15 00:56:17;;;;;;;18.95;15.95;;;16.00;99.90;;;;;;5009747;28;20278;-76
2022/10/15 00:58:46;;;;;;;22.40;17.85;;;16.00;99.90;;;;;;5009314;28;20215;-76
2022/10/15 01:01:13;;;;;;;24.45;19.73;;;16.00;99.90;;;;;;4995884;28;20704;-76
2022/10/15 01:03:42;;;;;;;21.27;18.33;;;16.00;99.90;;;;;;5014748;28;20200;-76
2022/10/15 01:06:10;;;;;;;20.95;18.40;;;15.90;99.90;;;;;;5009815;28;20223;-76
2022/10/15 01:08:37;;;;;;;22.58;18.63;;;15.90;99.90;;;;;;5005498;28;20200;-76
2022/10/15 01:11:18;;;;;;;28.70;23.20;;;15.90;99.90;;;;;;5006937;28;20351;-76
2022/10/15 01:13:54;;;;;;;23.15;20.02;;;15.80;99.90;;;;;;5006059;28;20203;-76
2022/10/15 01:16:36;;;;;;;20.40;17.73;;;15.70;99.90;;;;;;4990913;28;20731;-76
2022/10/15 01:19:12;;;;;;;21.40;17.75;;;15.70;99.90;;;;;;5004706;28;20264;-76
2022/10/15 01:21:45;;;;;;;21.88;17.25;;;15.80;99.90;;;;;;5006097;28;20222;-76
2022/10/15 01:24:38;;;;;;;19.77;17.67;;;15.80;99.90;;;;;;5002866;28;20208;-76
2022/10/15 01:27:28;;;;;;;20.23;17.17;;;15.80;99.90;;;;;;4997858;28;20957;-76
2022/10/15 01:30:23;;;;;;;23.08;18.70;;;15.80;99.90;;;;;;5008219;28;20232;-76
2022/10/15 01:33:25;;;;;;;21.90;18.50;;;15.80;99.90;;;;;;5010956;28;20255;-73
2022/10/15 01:35:58;;;;;;;24.95;19.55;;;15.70;99.90;;;;;;4989127;28;20600;-73
2022/10/15 01:38:40;;;;;;;21.10;17.95;;;15.60;99.90;;;;;;5012807;28;20201;-73
2022/10/15 01:41:12;;;;;;;22.48;18.00;;;15.60;99.90;;;;;;5009980;28;20231;-74
2022/10/15 01:43:47;;;;;;;21.65;18.33;;;15.60;99.90;;;;;;4993609;28;20196;-73
2022/10/15 01:46:19;;;;;;;23.23;18.35;;;15.60;99.90;;;;;;5003704;28;20700;-73
2022/10/15 01:48:51;;;;;;;24.63;19.20;;;15.60;99.90;;;;;;5013052;28;20212;-73
2022/10/15 01:51:21;;;;;;;19.50;16.70;;;15.60;99.90;;;;;;5008956;28;20220;-73
2022/10/15 01:53:50;;;;;;;18.13;16.13;;;15.60;99.90;;;;;;5007698;28;20201;-73
2022/10/15 01:56:22;;;;;;;17.00;15.20;;;15.60;99.90;;;;;;5001701;28;20243;-73
2022/10/15 01:58:53;;;;;;;20.80;17.05;;;15.60;99.90;;;;;;5002801;28;20216;-73
2022/10/15 02:01:21;;;;;;;18.48;15.95;;;15.70;99.90;;;;;;5004601;28;20220;-73
2022/10/15 02:03:51;;;;;;;19.08;16.52;;;15.70;99.90;;;;;;5002878;28;20203;-73
2022/10/15 02:06:24;;;;;;;23.55;20.15;;;15.60;99.90;;;;;;5012262;28;20238;-73
2022/10/15 02:09:00;;;;;;;21.33;17.80;;;15.70;99.90;;;;;;5008208;28;20742;-73
2022/10/15 02:11:28;;;;;;;21.48;19.17;;;15.60;99.90;;;;;;4995651;28;20219;-73
2022/10/15 02:14:01;;;;;;;19.75;17.65;;;15.60;99.90;;;;;;5005949;28;20211;-73
2022/10/15 02:16:32;;;;;;;28.05;22.48;;;15.60;99.90;;;;;;4988314;28;20751;-73
2022/10/15 02:19:06;;;;;;;26.90;20.00;;;15.50;99.90;;;;;;4993288;28;20212;-73
2022/10/15 02:21:39;;;;;;;23.45;19.10;;;15.40;99.90;;;;;;5010392;28;20230;-73
2022/10/15 02:24:10;;;;;;;20.08;17.25;;;15.40;99.90;;;;;;5006063;28;20686;-73
2022/10/15 02:26:39;;;;;;;18.15;16.27;;;15.40;99.90;;;;;;5004082;28;20216;-73
2022/10/15 02:29:11;;;;;;;19.25;16.05;;;15.40;99.90;;;;;;5010572;28;20225;-73
2022/10/15 02:31:41;;;;;;;18.23;16.30;;;15.50;99.90;;;;;;5007210;28;22342;-73
2022/10/15 02:34:15;;;;;;;18.35;15.55;;;15.50;99.90;;;;;;5004508;28;20204;-73
2022/10/15 02:36:43;;;;;;;20.92;15.27;;;15.50;99.90;;;;;;5007687;28;20235;-73
2022/10/15 02:39:13;;;;;;;18.08;15.25;;;15.50;99.90;;;;;;4999017;28;20243;-73
2022/10/15 02:41:40;;;;;;;18.35;15.60;;;15.50;99.90;;;;;;5003683;28;20586;-73
2022/10/15 02:44:08;;;;;;;20.25;16.15;;;15.50;99.90;;;;;;5007705;28;20231;-73
2022/10/15 02:46:36;;;;;;;18.08;16.02;;;15.50;99.90;;;;;;5010059;28;20867;-73
2022/10/15 02:49:03;;;;;;;19.60;16.45;;;15.50;99.90;;;;;;5004984;28;20197;-74
2022/10/15 02:51:34;;;;;;;20.80;17.35;;;15.50;99.90;;;;;;5005564;28;20216;-75
2022/10/15 02:54:02;;;;;;;18.58;16.02;;;15.50;99.90;;;;;;4998589;28;20196;-75
2022/10/15 02:56:30;;;;;;;20.60;17.60;;;15.50;99.90;;;;;;5018854;28;21707;-75
2022/10/15 02:58:58;;;;;;;17.75;15.63;;;15.40;99.90;;;;;;5006747;28;20199;-75
2022/10/15 03:01:25;;;;;;;19.35;15.32;;;15.40;99.90;;;;;;5003856;28;20230;-75
2022/10/15 03:03:53;;;;;;;17.90;15.10;;;15.40;99.90;;;;;;5010779;28;20211;-73
2022/10/15 03:06:20;;;;;;;17.67;15.77;;;15.40;99.90;;;;;;5002462;28;20212;-74
2022/10/15 03:08:49;;;;;;;18.45;16.23;;;15.40;99.90;;;;;;4991278;28;20669;-74
2022/10/15 03:11:16;;;;;;;18.92;16.85;;;15.40;99.90;;;;;;4988920;28;20622;-74
2022/10/15 03:13:44;;;;;;;19.85;16.48;;;15.50;99.90;;;;;;5004828;28;20196;-74
2022/10/15 03:16:12;;;;;;;24.88;19.80;;;15.50;99.90;;;;;;5010258;28;20220;-74
2022/10/15 03:18:39;;;;;;;23.63;20.17;;;15.40;99.90;;;;;;5005887;28;20204;-74
2022/10/15 03:21:07;;;;;;;23.33;18.10;;;15.40;99.90;;;;;;4987871;28;20219;-74
2022/10/15 03:23:34;;;;;;;23.75;18.65;;;15.40;99.90;;;;;;5008607;28;20211;-74
2022/10/15 03:26:03;;;;;;;18.90;16.88;;;15.40;99.90;;;;;;4975116;28;20224;-74
2022/10/15 03:28:31;;;;;;;21.98;17.77;;;15.30;99.90;;;;;;5009060;28;20210;-74
2022/10/15 03:30:58;;;;;;;18.02;16.08;;;15.30;99.90;;;;;;4990157;28;20223;-73
2022/10/15 03:33:26;;;;;;;19.60;15.48;;;15.30;99.90;;;;;;5013791;28;20204;-73
2022/10/15 03:35:54;;;;;;;19.92;17.02;;;15.30;99.90;;;;;;5001910;28;20284;-73
2022/10/15 03:38:21;;;;;;;17.75;15.85;;;15.20;99.90;;;;;;5011692;28;20197;-74
2022/10/15 03:40:48;;;;;;;16.55;14.85;;;15.20;99.90;;;;;;5017542;28;20220;-73
2022/10/15 03:43:17;;;;;;;18.70;15.93;;;15.20;99.90;;;;;;5019686;28;20200;-74
2022/10/15 03:45:45;;;;;;;15.93;13.82;;;15.20;99.90;;;;;;4991019;28;20219;-74
2022/10/15 03:48:12;;;;;;;14.93;13.32;;;15.20;99.90;;;;;;5007309;28;20200;-74
2022/10/15 03:50:40;;;;;;;18.20;13.80;;;15.20;99.90;;;;;;5003709;28;20220;-74
2022/10/15 03:53:07;;;;;;;14.65;13.13;;;15.20;99.90;;;;;;5007614;28;20207;-74
2022/10/15 03:55:35;;;;;;;18.55;15.15;;;15.30;99.90;;;;;;5001614;28;20717;-74
2022/10/15 03:58:02;;;;;;;17.85;15.38;;;15.30;99.90;;;;;;5003695;28;20200;-75
2022/10/15 04:00:31;;;;;;;16.48;14.77;;;15.30;99.90;;;;;;5001628;28;20213;-75
2022/10/15 04:02:58;;;;;;;18.13;15.95;;;15.20;99.90;;;;;;5011215;28;20200;-75
2022/10/15 04:05:26;;;;;;;22.77;17.92;;;15.20;99.90;;;;;;5000803;28;20724;-75
2022/10/15 04:07:54;;;;;;;20.05;16.88;;;15.20;99.90;;;;;;5000998;28;20666;-75
2022/10/15 04:10:21;;;;;;;19.55;16.52;;;15.20;99.90;;;;;;5004400;28;20725;-74
2022/10/15 04:12:49;;;;;;;17.65;15.48;;;15.20;99.90;;;;;;5009310;28;20625;-75
2022/10/15 04:15:16;;;;;;;18.50;15.38;;;15.10;99.90;;;;;;4988500;28;20216;-75
2022/10/15 04:17:45;;;;;;;20.98;16.67;;;15.10;99.90;;;;;;5015688;28;20210;-75
2022/10/15 04:20:13;;;;;;;18.27;15.00;;;15.10;99.90;;;;;;5007153;28;20216;-75
2022/10/15 04:22:40;;;;;;;18.33;15.07;;;15.10;99.90;;;;;;5007584;28;20200;-74
2022/10/15 04:25:09;;;;;;;17.77;15.15;;;15.10;99.90;;;;;;5007507;28;20588;-74
2022/10/15 04:27:36;;;;;;;16.52;14.70;;;15.10;99.90;;;;;;4978448;28;20674;-74
2022/10/15 04:30:04;;;;;;;16.00;14.27;;;15.00;99.90;;;;;;5009745;28;20532;-74
2022/10/15 04:32:31;;;;;;;14.48;12.98;;;14.90;99.90;;;;;;5006413;28;20208;-74
2022/10/15 04:35:00;;;;;;;13.23;11.70;;;14.90;99.90;;;;;;5010325;28;20271;-74
2022/10/15 04:37:27;;;;;;;15.25;13.40;;;14.90;99.90;;;;;;5016936;28;20209;-74
2022/10/15 04:39:55;;;;;;;17.55;14.00;;;15.00;99.90;;;;;;5007375;28;20228;-74
2022/10/15 04:42:24;;;;;;;15.15;13.55;;;15.00;99.90;;;;;;4989479;28;20203;-74
2022/10/15 04:44:52;;;;;;;16.95;13.35;;;15.00;99.90;;;;;;5006402;28;20220;-75
2022/10/15 04:47:20;;;;;;;14.95;13.35;;;15.00;99.90;;;;;;5005953;28;20212;-74
2022/10/15 04:49:47;;;;;;;14.32;12.73;;;15.00;99.90;;;;;;5013403;28;20236;-74
2022/10/15 04:52:16;;;;;;;16.45;14.15;;;15.00;99.90;;;;;;5008554;28;20192;-75
2022/10/15 04:54:44;;;;;;;15.00;13.40;;;15.00;99.90;;;;;;5008540;28;20743;-75
2022/10/15 04:57:11;;;;;;;13.60;12.10;;;15.00;99.90;;;;;;5014040;28;20203;-75
2022/10/15 04:59:39;;;;;;;14.48;12.98;;;15.00;99.90;;;;;;4994062;28;20246;-74
2022/10/15 05:02:06;;;;;;;15.55;13.10;;;15.00;99.90;;;;;;5005743;28;20286;-75
2022/10/15 05:04:34;;;;;;;17.00;15.13;;;15.00;99.90;;;;;;5001967;28;20262;-75
2022/10/15 05:07:01;;;;;;;15.40;13.75;;;15.00;99.90;;;;;;4998623;28;20192;-74
2022/10/15 05:09:30;;;;;;;15.15;13.55;;;14.90;99.90;;;;;;5006038;28;20216;-75
2022/10/15 05:11:57;;;;;;;16.52;14.68;;;15.00;99.90;;;;;;5009587;28;20199;-75
2022/10/15 05:14:26;;;;;;;16.23;14.63;;;14.90;99.90;;;;;;4990208;28;20193;-75
2022/10/15 05:16:54;;;;;;;15.13;13.52;;;14.90;99.90;;;;;;5006576;28;20200;-75
2022/10/15 05:19:21;;;;;;;14.80;12.98;;;14.90;99.90;;;;;;5006308;28;20596;-75
2022/10/15 05:21:49;;;;;;;15.13;13.52;;;14.90;99.90;;;;;;5009118;28;20244;-75
2022/10/15 05:24:16;;;;;;;14.57;13.00;;;14.80;99.90;;;;;;5005231;28;20862;-75
2022/10/15 05:26:45;;;;;;;16.42;14.35;;;14.90;99.90;;;;;;5008477;28;20212;-75
2022/10/15 05:29:13;;;;;;;15.70;14.07;;;14.80;99.90;;;;;;4962263;28;20216;-75
2022/10/15 05:31:40;;;;;;;15.68;14.07;;;14.80;99.90;;;;;;5008294;28;20216;-74
2022/10/15 05:34:09;;;;;;;17.42;15.32;;;14.80;99.90;;;;;;5006625;28;20212;-73
2022/10/15 05:36:37;;;;;;;16.00;14.27;;;14.70;99.90;;;;;;5011035;28;20231;-73
2022/10/15 05:39:06;;;;;;;16.38;14.60;;;14.70;99.90;;;;;;5010041;28;20227;-72
2022/10/15 05:41:34;;;;;;;17.75;14.55;;;14.70;99.90;;;;;;4992347;28;20326;-72
2022/10/15 05:44:03;;;;;;;17.35;14.63;;;14.60;99.90;;;;;;5009107;28;20263;-74
2022/10/15 05:46:30;;;;;;;18.13;14.63;;;14.60;99.90;;;;;;5004237;28;20741;-74
2022/10/15 05:48:59;;;;;;;18.05;15.07;;;14.60;99.90;;;;;;4992858;28;20204;-74
2022/10/15 05:51:28;;;;;;;16.35;14.00;;;14.60;99.90;;;;;;4971573;28;20249;-74
2022/10/15 05:53:56;;;;;;;16.85;14.40;;;14.60;99.90;;;;;;5010987;28;20197;-74
2022/10/15 05:56:24;;;;;;;15.82;14.07;;;14.60;99.90;;;;;;5010274;28;20228;-74
2022/10/15 05:58:52;;;;;;;16.10;14.32;;;14.70;99.90;;;;;;5002034;28;20204;-74
2022/10/15 06:01:21;;;;;;;15.80;14.10;;;14.70;99.90;;;;;;5007237;28;20224;-74
2022/10/15 06:03:48;;;;;;;16.95;13.68;;;14.70;99.90;;;;;;5006199;28;20629;-74
2022/10/15 06:06:17;;;;;;;14.55;13.05;;;14.80;99.90;;;;;;5006440;28;20216;-74
2022/10/15 06:08:45;;;;;;;14.48;12.98;;;14.80;99.90;;;;;;4986605;28;20207;-73
2022/10/15 06:11:12;;;;;;;17.58;14.52;;;14.90;99.90;;;;;;5007794;28;20219;-73
2022/10/15 06:13:41;;;;;;;16.38;13.85;;;14.90;99.90;;;;;;5004195;28;20200;-73
2022/10/15 06:16:09;;;;;;;16.33;14.30;;;14.90;99.90;;;;;;5005837;28;20242;-72
2022/10/15 06:18:39;;;;;;;15.70;14.07;;;15.00;99.90;;;;;;5003992;28;20208;-72
2022/10/15 06:21:07;;;;;;;16.20;14.50;;;15.10;99.90;;;;;;5004407;28;20224;-73
2022/10/15 06:23:34;;;;;;;15.88;13.57;;;15.10;99.90;;;;;;5006595;28;20197;-73
2022/10/15 06:26:03;;;;;;;14.35;12.85;;;15.20;99.90;;;;;;5003958;28;20227;-73
2022/10/15 06:28:30;;;;;;;18.05;14.63;;;15.20;99.90;;;;;;5007020;28;20285;-73
2022/10/15 06:30:59;;;;;;;16.05;14.35;;;15.30;99.90;;;;;;5005035;28;20226;-72
2022/10/15 06:33:27;;;;;;;16.67;14.88;;;15.30;99.90;;;;;;5007702;28;20220;-74
2022/10/15 06:36:00;;;;;;;15.48;13.70;;;15.30;99.90;;;;;;4988320;28;20248;-74
2022/10/15 06:38:27;;;;;;;17.35;14.00;;;15.40;99.90;;;;;;5007789;28;20200;-74
2022/10/15 06:40:57;;;;;;;16.15;14.43;;;15.40;99.90;;;;;;5006836;28;20228;-74
2022/10/15 06:43:25;;;;;;;18.48;15.30;;;15.50;99.90;;;;;;5006886;28;20214;-74
2022/10/15 06:45:52;;;;;;;16.63;14.82;;;15.50;99.90;;;;;;5002480;28;20227;-74
2022/10/15 06:48:20;;;;;;;18.80;15.57;;;15.50;99.90;;;;;;5004292;28;20208;-74
2022/10/15 06:50:47;;;;;;;16.55;14.77;;;15.50;99.90;;;;;;5007612;28;20272;-74
2022/10/15 06:53:16;;;;;;;17.33;15.48;;;15.50;99.90;;;;;;5006226;28;20196;-74
2022/10/15 06:55:44;;;;;;;16.73;14.48;;;15.50;99.90;;;;;;5003835;28;20228;-74
2022/10/15 06:58:11;;;;;;;19.63;15.23;;;15.50;99.90;;;;;;4983997;28;20207;-74
2022/10/15 07:00:39;;;;;;;16.55;14.15;;;15.40;99.90;;;;;;5004727;28;20227;-74
2022/10/15 07:03:07;;;;;;;15.70;13.55;;;15.40;99.90;;;;;;5006773;28;20200;-74
2022/10/15 07:05:35;;;;;;;15.50;13.57;;;15.40;99.90;;;;;;5004773;28;20230;-73
2022/10/15 07:08:04;;;;;;;14.35;12.65;;;15.50;99.90;;;;;;5004078;28;20204;-75
2022/10/15 07:10:33;;;;;;;14.68;12.73;;;15.50;99.90;;;;;;5006131;28;20224;-75
2022/10/15 07:13:01;;;;;;;15.27;13.27;;;15.60;99.90;;;;;;5012224;28;20215;-75
2022/10/15 07:15:29;;;;;;;15.73;14.02;;;15.60;99.90;;;;;;5012804;28;20220;-74
2022/10/15 07:18:00;;;;;;;15.98;13.88;;;15.60;99.90;;;;;;5004080;28;20211;-73
2022/10/15 07:20:28;;;;;;;15.13;13.48;;;15.60;99.90;;;;;;5009557;28;20303;-73
2022/10/15 07:22:58;;;;;;;18.98;16.42;;;15.60;99.90;;;;;;5008488;28;20216;-73
2022/10/15 07:25:26;;;;;;;15.13;13.52;;;15.60;99.90;;;;;;4974450;28;20220;-73
2022/10/15 07:27:56;;;;;;;17.58;15.23;;;15.60;99.90;;;;;;5007205;28;20192;-73
2022/10/15 07:30:26;;;;;;;17.35;15.48;;;15.70;99.90;;;;;;5005474;28;20239;-73
2022/10/15 07:32:53;;;;;;;17.73;15.75;;;15.70;99.90;;;;;;5005279;28;20627;-73
2022/10/15 07:35:21;;;;;;;17.48;14.70;;;15.60;99.90;;;;;;5002736;28;20226;-71
2022/10/15 07:37:49;;;;;;;18.40;14.95;;;15.70;99.90;;;;;;4984936;28;20246;-71
2022/10/15 07:40:17;;;;;;;16.92;15.10;;;15.70;99.90;;;;;;5000776;28;20232;-72
2022/10/15 07:42:44;;;;;;;15.18;13.38;;;15.70;99.90;;;;;;5004409;28;20890;-72
2022/10/15 07:45:13;;;;;;;14.07;12.57;;;15.70;99.90;;;;;;5005780;28;20557;-72
2022/10/15 07:47:41;;;;;;;14.05;12.65;;;15.70;99.90;;;;;;5008145;28;20203;-73
2022/10/15 07:50:09;;;;;;;16.15;14.40;;;15.70;99.90;;;;;;5005843;28;20262;-73
2022/10/15 07:52:37;;;;;;;15.00;13.50;;;15.70;99.90;;;;;;5010438;28;20188;-73
2022/10/15 07:55:05;;;;;;;15.68;14.02;;;15.60;99.90;;;;;;4990906;28;20957;-73
2022/10/15 07:57:33;;;;;;;17.50;15.65;;;15.60;99.90;;;;;;4988949;28;20571;-73
2022/10/15 08:00:01;;;;;;;16.17;13.32;;;15.70;99.90;;;;;;5005928;28;20903;-74
2022/10/15 08:02:30;;;;;;;15.07;13.52;;;15.70;99.90;;;;;;5010861;28;20220;-76
2022/10/15 08:04:57;;;;;;;17.70;14.70;;;15.70;99.90;;;;;;5005191;28;20733;-73
2022/10/15 08:07:25;;;;;;;16.08;13.07;;;15.70;99.90;;;;;;5001867;28;20200;-75
2022/10/15 08:09:52;;;;;;;14.52;13.02;;;15.70;99.90;;;;;;5004081;28;20240;-74
2022/10/15 08:12:19;;;;;;;14.90;13.32;;;15.60;99.90;;;;;;4971718;28;20651;-74
2022/10/15 08:14:47;;;;;;;13.73;12.32;;;15.50;99.90;;;;;;4997613;28;20945;-75
2022/10/15 08:17:15;;;;;;;13.30;11.85;;;15.50;99.90;;;;;;5002911;28;20216;-74
2022/10/15 08:19:44;;;;;;;12.95;11.57;;;15.60;99.90;;;;;;5002273;28;20232;-74
2022/10/15 08:22:11;;;;;;;13.43;11.02;;;15.90;99.90;;;;;;5002679;28;20220;-74
2022/10/15 08:24:39;;;;;;;15.40;13.50;;;16.10;99.90;;;;;;5002766;28;20197;-75
2022/10/15 08:27:06;;;;;;;13.85;12.40;;;16.40;99.90;;;;;;5000417;28;20207;-75
2022/10/15 08:29:33;;;;;;;14.77;12.68;;;16.70;99.90;;;;;;5000400;28;20223;-74
2022/10/15 08:32:00;;;;;;;16.88;14.98;;;16.90;99.90;;;;;;4999863;28;20203;-74
2022/10/15 08:34:28;;;;;;;20.02;17.92;;;17.00;99.90;;;;;;5002220;28;20676;-74
2022/10/15 08:36:57;;;;;;;20.60;16.95;;;17.00;99.90;;;;;;5001351;28;20208;-76
2022/10/15 08:39:25;;;;;;;18.40;16.42;;;17.10;99.90;;;;;;4971632;28;20216;-76
2022/10/15 08:41:56;;;;;;;18.90;16.90;;;17.10;99.90;;;;;;4997744;28;20217;-75
2022/10/15 08:44:27;;;;;;;18.65;16.58;;;17.30;99.90;;;;;;4998857;28;20193;-75
2022/10/15 08:46:59;;;;;;;17.58;15.88;;;17.40;99.90;;;;;;4994636;28;20687;-74
2022/10/15 08:49:36;;;;;;;20.55;17.27;;;17.40;99.90;;;;;;5003930;28;20216;-74
2022/10/15 08:52:17;;;;;;;18.92;16.83;;;17.40;99.90;;;;;;5005138;28;20197;-74
2022/10/15 08:54:44;;;;;;;17.58;15.68;;;17.50;99.90;;;;;;5003532;28;20227;-72
2022/10/15 08:57:23;;;;;;;20.58;18.50;;;17.60;99.90;;;;;;5005347;28;20196;-72
2022/10/15 08:59:59;;;;;;;22.67;17.95;;;17.70;99.90;;;;;;5006898;28;20744;-72
2022/10/15 09:02:31;;;;;;;20.88;17.77;;;17.90;99.90;;;;;;5006552;28;20204;-71
2022/10/15 09:05:03;;;;;;;19.85;16.65;;;18.00;99.90;;;;;;5003062;28;20212;-72
2022/10/15 09:07:41;;;;;;;18.25;16.23;;;17.90;99.90;;;;;;5008266;28;20208;-72
2022/10/15 09:10:17;;;;;;;18.63;15.45;;;17.80;99.90;;;;;;5003989;28;20232;-72
2022/10/15 09:12:55;;;;;;;16.45;14.63;;;18.00;99.90;;;;;;4999622;28;20223;-73
2022/10/15 09:15:24;;;;;;;16.00;14.35;;;18.30;99.90;;;;;;5002117;28;20224;-73
2022/10/15 09:17:54;;;;;;;18.15;15.13;;;18.70;99.90;;;;;;5004619;28;20212;-73
2022/10/15 09:20:26;;;;;;;19.05;16.23;;;19.00;99.90;;;;;;4990208;28;20706;-73
2022/10/15 09:22:55;;;;;;;18.27;16.35;;;19.30;99.90;;;;;;5003475;28;20841;-73
2022/10/15 09:25:24;;;;;;;25.88;19.63;;;19.40;99.90;;;;;;5001631;28;20753;-73
2022/10/15 09:27:52;;;;;;;22.80;19.42;;;19.40;99.90;;;;;;5008211;28;20204;-73
2022/10/15 09:30:37;;;;;;;23.02;20.40;;;19.30;99.90;;;;;;4987836;28;20243;-72
2022/10/15 09:33:15;;;;;;;23.80;20.30;;;19.00;99.90;;;;;;5007701;28;20200;-72
2022/10/15 09:35:46;;;;;;;22.05;18.80;;;18.90;99.90;;;;;;5001316;28;20227;-72
2022/10/15 09:38:25;;;;;;;23.75;21.13;;;19.00;99.90;;;;;;4988574;28;20196;-72
2022/10/15 09:41:03;;;;;;;22.05;18.67;;;19.10;99.90;;;;;;5001684;28;20250;-72
2022/10/15 09:43:35;;;;;;;22.23;19.05;;;19.20;99.90;;;;;;4988611;28;20219;-72
2022/10/15 09:46:02;;;;;;;24.42;19.38;;;19.50;99.90;;;;;;5011328;28;20295;-71
2022/10/15 09:48:33;;;;;;;20.75;18.38;;;19.90;99.90;;;;;;5008007;28;20195;-72
2022/10/15 09:51:06;;;;;;;23.05;18.40;;;20.00;99.90;;;;;;5008291;28;20235;-72
2022/10/15 09:53:46;;;;;;;26.38;21.10;;;20.10;99.90;;;;;;5005359;28;20192;-72
2022/10/15 09:56:18;;;;;;;24.08;21.48;;;20.20;99.90;;;;;;5001504;28;20591;-72
2022/10/15 09:58:51;;;;;;;25.50;20.67;;;20.00;99.90;;;;;;4998812;28;20200;-72
2022/10/15 10:01:20;;;;;;;20.85;18.45;;;19.80;99.90;;;;;;5012222;28;20267;-73
2022/10/15 10:03:54;;;;;;;22.45;18.40;;;19.80;99.90;;;;;;5016458;28;20212;-72
2022/10/15 10:06:24;;;;;;;21.55;19.10;;;20.10;99.90;;;;;;5011386;28;20260;-73
2022/10/15 10:08:56;;;;;;;21.25;19.05;;;20.20;99.90;;;;;;4998061;28;20791;-72
2022/10/15 10:11:26;;;;;;;21.27;18.92;;;20.20;99.90;;;;;;4961920;28;20266;-74
2022/10/15 10:13:56;;;;;;;24.92;20.50;;;20.10;99.90;;;;;;4997878;28;20208;-72
2022/10/15 10:16:24;;;;;;;28.58;24.17;;;19.90;99.90;;;;;;4996658;28;20220;-71
2022/10/15 10:19:06;;;;;;;24.35;21.42;;;19.50;99.90;;;;;;4994632;28;20457;-71
2022/10/15 10:21:37;;;;;;;22.83;19.00;;;19.20;99.90;;;;;;5000257;28;20886;-71
2022/10/15 10:24:36;;;;;;;26.35;22.25;;;19.00;99.90;;;;;;5001787;28;20197;-72
2022/10/15 10:27:05;;;;;;;23.60;20.63;;;18.80;99.90;;;;;;4997805;28;20232;-72
2022/10/15 10:29:39;;;;;;;23.77;19.77;;;18.70;99.90;;;;;;4996502;28;20282;-71
2022/10/15 10:32:13;;;;;;;23.50;18.90;;;18.70;99.90;;;;;;4997590;28;20207;-73
2022/10/15 10:34:44;;;;;;;21.42;19.13;;;19.00;99.90;;;;;;4984521;28;20419;-72
2022/10/15 10:39:01;;;;;;;22.55;17.25;;;19.20;99.90;;;;;;5135819;27;21223;-77
2022/10/15 10:41:50;;;;;;;19.10;16.13;;;19.40;99.90;;;;;;5051823;28;20237;-77
2022/10/15 10:44:22;;;;;;;17.88;15.55;;;19.70;99.90;;;;;;5048681;28;20286;-77
2022/10/15 10:47:03;;;;;;;17.13;15.30;;;20.00;99.90;;;;;;5058906;28;20680;-77
2022/10/15 10:49:33;;;;;;;18.65;16.67;;;20.10;99.90;;;;;;5057421;28;20271;-76
2022/10/15 10:52:00;;;;;;;22.05;19.20;;;19.90;99.90;;;;;;5058755;28;20206;-76
2022/10/15 10:54:30;;;;;;;22.20;18.83;;;19.50;99.90;;;;;;5058583;28;20202;-76
2022/10/15 10:56:58;;;;;;;22.92;20.52;;;19.20;99.90;;;;;;5059829;28;20227;-77
2022/10/15 10:59:29;;;;;;;21.27;18.38;;;19.00;99.90;;;;;;5058537;28;20218;-77
2022/10/15 11:01:56;;;;;;;21.00;18.80;;;18.90;99.90;;;;;;5037488;28;20713;-76
2022/10/15 11:04:25;;;;;;;27.90;24.17;;;18.80;99.90;;;;;;5039670;28;20347;-78
2022/10/15 11:07:01;;;;;;;28.65;24.98;;;18.70;99.90;;;;;;5043741;28;20218;-78
2022/10/15 11:09:53;;;;;;;28.42;22.38;;;18.60;99.90;;;;;;5036046;28;20261;-79
2022/10/15 11:12:44;;;;;;;23.52;19.73;;;18.70;99.90;;;;;;5038623;28;20183;-76
2022/10/15 11:15:24;;;;;;;23.77;18.30;;;19.00;99.90;;;;;;5048247;28;20233;-77
2022/10/15 11:18:02;;;;;;;23.55;19.30;;;19.20;99.90;;;;;;5058107;28;20481;-77
2022/10/15 11:20:38;;;;;;;23.80;21.15;;;19.50;99.90;;;;;;5057776;28;20233;-77
2022/10/15 11:23:22;;;;;;;23.90;21.30;;;19.70;99.90;;;;;;5060769;28;20202;-77
2022/10/15 11:25:58;;;;;;;19.83;17.38;;;19.80;99.90;;;;;;5053225;28;20283;-77
2022/10/15 11:28:40;;;;;;;20.17;17.52;;;19.80;99.90;;;;;;5056311;28;20299;-77
2022/10/15 11:31:15;;;;;;;20.00;16.95;;;19.80;99.90;;;;;;5059391;28;20718;-77
2022/10/15 11:33:54;;;;;;;22.38;19.25;;;19.70;99.90;;;;;;5058336;28;20568;-78
2022/10/15 11:36:41;;;;;;;23.88;19.90;;;19.70;99.90;;;;;;5051944;28;20210;-76
2022/10/15 11:39:30;;;;;;;21.45;18.90;;;19.70;99.90;;;;;;5057733;28;20231;-76
2022/10/15 11:42:12;;;;;;;24.33;19.75;;;19.60;99.90;;;;;;5053996;28;20222;-76
2022/10/15 11:45:01;;;;;;;21.63;18.20;;;19.80;99.90;;;;;;5055819;28;20198;-76
2022/10/15 11:47:33;;;;;;;19.48;17.42;;;20.00;99.90;;;;;;5075638;23;20186;31
2022/10/15 11:50:14;;;;;;;20.48;18.20;;;20.30;99.90;;;;;;4999678;28;20675;-75
2022/10/15 11:52:54;;;;;;;20.17;18.08;;;20.40;99.90;;;;;;4998056;28;20443;-76
2022/10/15 11:55:27;;;;;;;24.50;20.85;;;20.40;99.90;;;;;;5002460;28;20227;-76
2022/10/15 11:58:00;;;;;;;22.45;19.70;;;20.20;99.90;;;;;;5005774;28;20220;-75
2022/10/15 12:00:34;;;;;;;21.48;18.70;;;20.20;99.90;;;;;;5007281;28;20223;-75
2022/10/15 12:03:05;;;;;;;21.48;19.17;;;20.30;99.90;;;;;;5006799;28;20230;-74
2022/10/15 12:05:35;;;;;;;22.48;19.15;;;20.20;99.90;;;;;;5006251;28;20224;-75
2022/10/15 12:08:04;;;;;;;22.40;18.92;;;20.00;99.90;;;;;;5005782;28;20216;-75
2022/10/15 12:10:41;;;;;;;30.00;23.85;;;20.00;99.90;;;;;;4996917;28;20249;-74
2022/10/15 12:13:15;;;;;;;24.50;21.27;;;20.20;99.90;;;;;;4988196;28;20216;-76
2022/10/15 12:15:48;;;;;;;29.08;23.60;;;20.20;99.90;;;;;;4983211;28;20266;-75
2022/10/15 12:18:23;;;;;;;24.02;20.65;;;20.20;99.90;;;;;;4983938;28;20227;-76
2022/10/15 12:20:54;;;;;;;25.48;22.23;;;20.20;99.90;;;;;;4985308;28;20240;-75
2022/10/15 12:23:26;;;;;;;32.08;25.83;;;20.30;99.90;;;;;;4986244;28;20284;-76
2022/10/15 12:25:53;;;;;;;34.50;25.90;;;20.30;99.90;;;;;;4985365;28;20738;-75
2022/10/15 12:28:25;;;;;;;26.23;23.25;;;20.30;99.90;;;;;;4987204;28;20209;-74
2022/10/15 12:30:58;;;;;;;28.42;24.35;;;20.40;99.90;;;;;;4986756;28;20224;-75
2022/10/15 12:33:31;;;;;;;33.75;27.67;;;20.40;99.90;;;;;;4986596;28;20208;-75
2022/10/15 12:36:01;;;;;;;36.40;28.58;;;20.40;99.90;;;;;;4985289;28;20221;-75
2022/10/15 12:38:31;;;;;;;27.30;23.63;;;20.30;99.90;;;;;;4986177;28;20229;-75
2022/10/15 12:41:03;;;;;;;28.52;23.95;;;20.20;99.90;;;;;;4986389;28;20221;-75
2022/10/15 12:43:34;;;;;;;39.17;30.50;;;20.20;99.90;;;;;;4985668;28;20205;-75
2022/10/15 12:46:03;;;;;;;28.02;25.00;;;20.20;99.90;;;;;;4985418;28;20332;-75
2022/10/15 12:48:33;;;;;;;27.83;23.45;;;20.20;99.90;;;;;;4983178;28;20217;-75